sensor_id;sensor_type;location;lat;lon;timestamp;pressure;altitude;pressure_sealevel;temperature;humidity
78144;BME280;67394;52.522;13.622;2023-05-16T00:01:32;100256.56;;;12.91;82.17
78144;BME280;67394;52.522;13.622;2023-05-16T00:03:58;100253.88;;;12.97;81.03
78144;BME280;67394;52.522;13.622;2023-05-16T00:06:25;100258.09;;;13.03;81.17
78144;BME280;67394;52.522;13.622;2023-05-16T00:08:54;100258.09;;;13.03;80.70
78144;BME280;67394;52.522;13.622;2023-05-16T00:11:21;100255.59;;;12.97;81.61
78144;BME280;67394;52.522;13.622;2023-05-16T00:13:47;100257.44;;;12.89;81.89
78144;BME280;67394;52.522;13.622;2023-05-16T00:16:14;100258.31;;;12.89;82.01
78144;BME280;67394;52.522;13.622;2023-05-16T00:18:41;100253.00;;;12.98;81.12
78144;BME280;67394;52.522;13.622;2023-05-16T00:21:08;100259.03;;;12.96;81.18
78144;BME280;67394;52.522;13.622;2023-05-16T00:23:35;100259.88;;;12.96;81.28
78144;BME280;67394;52.522;13.622;2023-05-16T00:26:02;100258.81;;;13.09;79.65
78144;BME280;67394;52.522;13.622;2023-05-16T00:28:28;100261.38;;;13.09;80.29
78144;BME280;67394;52.522;13.622;2023-05-16T00:30:55;100257.13;;;13.08;80.47
78144;BME280;67394;52.522;13.622;2023-05-16T00:33:22;100266.69;;;13.00;80.76
78144;BME280;67394;52.522;13.622;2023-05-16T00:35:48;100267.44;;;13.05;80.42
78144;BME280;67394;52.522;13.622;2023-05-16T00:38:15;100265.75;;;13.04;80.42
78144;BME280;67394;52.522;13.622;2023-05-16T00:40:42;100272.50;;;13.11;80.58
78144;BME280;67394;52.522;13.622;2023-05-16T00:43:08;100270.88;;;13.06;79.87
78144;BME280;67394;52.522;13.622;2023-05-16T00:45:35;100268.38;;;13.03;80.86
78144;BME280;67394;52.522;13.622;2023-05-16T00:48:02;100268.31;;;13.04;80.42
78144;BME280;67394;52.522;13.622;2023-05-16T00:50:32;100266.78;;;12.94;81.55
78144;BME280;67394;52.522;13.622;2023-05-16T00:52:59;100276.22;;;12.94;80.66
78144;BME280;67394;52.522;13.622;2023-05-16T00:55:26;100274.47;;;12.96;80.86
78144;BME280;67394;52.522;13.622;2023-05-16T00:57:53;100283.31;;;12.81;81.83
78144;BME280;67394;52.522;13.622;2023-05-16T01:00:22;100283.34;;;12.76;81.72
78144;BME280;67394;52.522;13.622;2023-05-16T01:02:50;100281.63;;;12.77;81.02
78144;BME280;67394;52.522;13.622;2023-05-16T01:05:21;100290.22;;;12.77;81.64
78144;BME280;67394;52.522;13.622;2023-05-16T01:07:48;100285.03;;;12.80;81.98
78144;BME280;67394;52.522;13.622;2023-05-16T01:10:14;100286.75;;;12.78;81.81
78144;BME280;67394;52.522;13.622;2023-05-16T01:13:00;100295.44;;;12.71;82.04
78144;BME280;67394;52.522;13.622;2023-05-16T01:15:51;100289.56;;;12.63;82.70
78144;BME280;67394;52.522;13.622;2023-05-16T01:21:47;100299.09;;;12.57;82.95
78144;BME280;67394;52.522;13.622;2023-05-16T01:27:22;100308.69;;;12.45;83.95
78144;BME280;67394;52.522;13.622;2023-05-16T01:29:54;100315.50;;;12.48;84.50
78144;BME280;67394;52.522;13.622;2023-05-16T01:32:21;100314.69;;;12.44;84.64
78144;BME280;67394;52.522;13.622;2023-05-16T01:34:51;100319.88;;;12.40;85.51
78144;BME280;67394;52.522;13.622;2023-05-16T01:37:32;100324.28;;;12.30;85.51
78144;BME280;67394;52.522;13.622;2023-05-16T01:40:15;100328.63;;;12.28;85.88
78144;BME280;67394;52.522;13.622;2023-05-16T01:42:46;100326.00;;;12.31;85.80
78144;BME280;67394;52.522;13.622;2023-05-16T01:45:28;100335.50;;;12.25;86.28
78144;BME280;67394;52.522;13.622;2023-05-16T01:48:08;100337.34;;;12.15;87.13
78144;BME280;67394;52.522;13.622;2023-05-16T01:50:42;100357.06;;;12.13;86.96
78144;BME280;67394;52.522;13.622;2023-05-16T01:53:15;100346.91;;;12.04;87.06
78144;BME280;67394;52.522;13.622;2023-05-16T01:55:50;100348.66;;;11.97;88.02
78144;BME280;67394;52.522;13.622;2023-05-16T01:58:22;100359.84;;;11.95;87.55
78144;BME280;67394;52.522;13.622;2023-05-16T02:00:54;100358.06;;;11.98;87.87
78144;BME280;67394;52.522;13.622;2023-05-16T02:03:25;100363.28;;;11.94;88.03
78144;BME280;67394;52.522;13.622;2023-05-16T02:05:54;100370.16;;;11.90;88.30
78144;BME280;67394;52.522;13.622;2023-05-16T02:08:20;100365.94;;;11.86;88.47
78144;BME280;67394;52.522;13.622;2023-05-16T02:10:47;100371.97;;;11.82;88.92
78144;BME280;67394;52.522;13.622;2023-05-16T02:13:14;100378.81;;;11.82;88.28
78144;BME280;67394;52.522;13.622;2023-05-16T02:15:40;100378.81;;;11.80;89.15
78144;BME280;67394;52.522;13.622;2023-05-16T02:18:07;100386.53;;;11.80;88.32
78144;BME280;67394;52.522;13.622;2023-05-16T02:20:36;100389.06;;;11.82;88.16
78144;BME280;67394;52.522;13.622;2023-05-16T02:23:03;100390.84;;;11.73;88.35
78144;BME280;67394;52.522;13.622;2023-05-16T02:25:29;100397.69;;;11.73;88.09
78144;BME280;67394;52.522;13.622;2023-05-16T02:27:57;100395.13;;;11.71;87.99
78144;BME280;67394;52.522;13.622;2023-05-16T02:30:24;100395.16;;;11.68;87.85
78144;BME280;67394;52.522;13.622;2023-05-16T02:32:50;100401.22;;;11.63;87.29
78144;BME280;67394;52.522;13.622;2023-05-16T02:35:17;100402.91;;;11.64;87.69
78144;BME280;67394;52.522;13.622;2023-05-16T02:37:45;100404.66;;;11.57;87.72
78144;BME280;67394;52.522;13.622;2023-05-16T02:40:12;100408.06;;;11.61;87.46
78144;BME280;67394;52.522;13.622;2023-05-16T02:42:39;100408.97;;;11.55;87.50
78144;BME280;67394;52.522;13.622;2023-05-16T02:45:06;100415.84;;;11.53;87.03
78144;BME280;67394;52.522;13.622;2023-05-16T02:47:33;100421.00;;;11.52;87.12
78144;BME280;67394;52.522;13.622;2023-05-16T02:50:00;100421.03;;;11.44;87.32
78144;BME280;67394;52.522;13.622;2023-05-16T02:52:28;100423.63;;;11.43;87.40
78144;BME280;67394;52.522;13.622;2023-05-16T02:54:55;100423.72;;;11.32;86.18
78144;BME280;67394;52.522;13.622;2023-05-16T02:57:41;100440.06;;;11.14;86.58
78144;BME280;67394;52.522;13.622;2023-05-16T03:00:08;100433.22;;;11.13;86.21
78144;BME280;67394;52.522;13.622;2023-05-16T03:02:36;100434.06;;;11.18;86.19
78144;BME280;67394;52.522;13.622;2023-05-16T03:05:05;100437.56;;;11.07;85.97
78144;BME280;67394;52.522;13.622;2023-05-16T03:07:32;100446.09;;;11.02;86.49
78144;BME280;67394;52.522;13.622;2023-05-16T03:09:58;100446.16;;;10.96;86.79
78144;BME280;67394;52.522;13.622;2023-05-16T03:12:25;100453.84;;;10.95;86.66
78144;BME280;67394;52.522;13.622;2023-05-16T03:14:52;100447.03;;;10.92;86.57
78144;BME280;67394;52.522;13.622;2023-05-16T03:17:18;100453.03;;;10.90;86.32
78144;BME280;67394;52.522;13.622;2023-05-16T03:19:45;100454.81;;;10.80;86.17
78144;BME280;67394;52.522;13.622;2023-05-16T03:22:12;100460.78;;;10.78;86.82
78144;BME280;67394;52.522;13.622;2023-05-16T03:24:39;100460.75;;;10.82;86.82
78144;BME280;67394;52.522;13.622;2023-05-16T03:27:06;100462.50;;;10.80;86.68
78144;BME280;67394;52.522;13.622;2023-05-16T03:29:33;100469.34;;;10.80;86.26
78144;BME280;67394;52.522;13.622;2023-05-16T03:31:59;100470.19;;;10.77;87.13
78144;BME280;67394;52.522;13.622;2023-05-16T03:34:26;100467.63;;;10.76;86.43
78144;BME280;67394;52.522;13.622;2023-05-16T03:36:53;100467.63;;;10.77;86.22
78144;BME280;67394;52.522;13.622;2023-05-16T03:39:20;100468.44;;;10.82;86.47
78144;BME280;67394;52.522;13.622;2023-05-16T03:41:47;100465.03;;;10.86;86.12
78144;BME280;67394;52.522;13.622;2023-05-16T03:44:13;100474.47;;;10.78;86.72
78144;BME280;67394;52.522;13.622;2023-05-16T03:46:40;100471.91;;;10.77;86.39
78144;BME280;67394;52.522;13.622;2023-05-16T03:49:07;100477.03;;;10.77;86.25
78144;BME280;67394;52.522;13.622;2023-05-16T03:51:33;100482.16;;;10.78;85.94
78144;BME280;67394;52.522;13.622;2023-05-16T03:54:02;100477.88;;;10.80;86.39
78144;BME280;67394;52.522;13.622;2023-05-16T03:56:29;100479.56;;;10.84;86.23
78144;BME280;67394;52.522;13.622;2023-05-16T03:58:55;100477.84;;;10.86;86.20
78144;BME280;67394;52.522;13.622;2023-05-16T04:01:22;100481.25;;;10.84;86.41
78144;BME280;67394;52.522;13.622;2023-05-16T04:03:50;100481.31;;;10.79;86.15
78144;BME280;67394;52.522;13.622;2023-05-16T04:06:16;100481.31;;;10.76;86.35
78144;BME280;67394;52.522;13.622;2023-05-16T04:08:43;100488.16;;;10.73;86.58
78144;BME280;67394;52.522;13.622;2023-05-16T04:11:10;100492.44;;;10.64;86.20
78144;BME280;67394;52.522;13.622;2023-05-16T04:13:37;100498.44;;;10.65;86.59
78144;BME280;67394;52.522;13.622;2023-05-16T04:16:04;100497.56;;;10.69;86.34
78144;BME280;67394;52.522;13.622;2023-05-16T04:18:32;100496.69;;;10.70;86.34
78144;BME280;67394;52.522;13.622;2023-05-16T04:20:58;100501.00;;;10.68;87.02
78144;BME280;67394;52.522;13.622;2023-05-16T04:23:25;100501.84;;;10.61;86.95
78144;BME280;67394;52.522;13.622;2023-05-16T04:25:52;100517.22;;;10.61;86.89
78144;BME280;67394;52.522;13.622;2023-05-16T04:28:19;100523.22;;;10.60;87.02
78144;BME280;67394;52.522;13.622;2023-05-16T04:30:46;100522.34;;;10.64;87.15
78144;BME280;67394;52.522;13.622;2023-05-16T04:33:12;100527.47;;;10.59;86.65
78144;BME280;67394;52.522;13.622;2023-05-16T04:35:39;100525.81;;;10.58;86.74
78144;BME280;67394;52.522;13.622;2023-05-16T04:38:06;100536.88;;;10.62;86.84
78144;BME280;67394;52.522;13.622;2023-05-16T04:40:33;100532.59;;;10.61;86.68
78144;BME280;67394;52.522;13.622;2023-05-16T04:42:59;100550.56;;;10.62;86.93
78144;BME280;67394;52.522;13.622;2023-05-16T04:45:26;100555.72;;;10.58;86.53
78144;BME280;67394;52.522;13.622;2023-05-16T04:47:53;100553.16;;;10.58;87.12
78144;BME280;67394;52.522;13.622;2023-05-16T04:50:20;100570.22;;;10.59;86.27
78144;BME280;67394;52.522;13.622;2023-05-16T04:52:47;100565.97;;;10.46;86.58
78144;BME280;67394;52.522;13.622;2023-05-16T04:55:13;100571.09;;;10.46;86.70
78144;BME280;67394;52.522;13.622;2023-05-16T04:57:40;100569.38;;;10.45;86.49
78144;BME280;67394;52.522;13.622;2023-05-16T05:00:07;100579.63;;;10.40;86.64
78144;BME280;67394;52.522;13.622;2023-05-16T05:02:34;100577.06;;;10.39;87.35
78144;BME280;67394;52.522;13.622;2023-05-16T05:05:00;100579.66;;;10.34;87.01
78144;BME280;67394;52.522;13.622;2023-05-16T05:07:27;100593.31;;;10.27;87.00
78144;BME280;67394;52.522;13.622;2023-05-16T05:09:54;100595.88;;;10.33;87.23
78144;BME280;67394;52.522;13.622;2023-05-16T05:12:21;100603.56;;;10.30;86.86
78144;BME280;67394;52.522;13.622;2023-05-16T05:14:48;100603.56;;;10.27;86.95
78144;BME280;67394;52.522;13.622;2023-05-16T05:17:14;100605.28;;;10.34;86.89
78144;BME280;67394;52.522;13.622;2023-05-16T05:19:41;100612.94;;;10.33;86.29
78144;BME280;67394;52.522;13.622;2023-05-16T05:22:08;100624.91;;;10.32;85.78
78144;BME280;67394;52.522;13.622;2023-05-16T05:24:35;100630.88;;;10.28;86.48
78144;BME280;67394;52.522;13.622;2023-05-16T05:27:02;100631.75;;;10.25;86.76
78144;BME280;67394;52.522;13.622;2023-05-16T05:29:28;100626.63;;;10.35;86.81
78144;BME280;67394;52.522;13.622;2023-05-16T05:31:55;100634.31;;;10.36;86.25
78144;BME280;67394;52.522;13.622;2023-05-16T05:34:22;100640.28;;;10.40;86.19
78144;BME280;67394;52.522;13.622;2023-05-16T05:36:49;100630.03;;;10.31;86.06
78144;BME280;67394;52.522;13.622;2023-05-16T05:39:15;100638.56;;;10.28;85.99
78144;BME280;67394;52.522;13.622;2023-05-16T05:41:42;100648.81;;;10.26;86.59
78144;BME280;67394;52.522;13.622;2023-05-16T05:44:09;100659.91;;;10.19;86.10
78144;BME280;67394;52.522;13.622;2023-05-16T05:46:35;100653.94;;;10.26;86.64
78144;BME280;67394;52.522;13.622;2023-05-16T05:49:03;100664.19;;;10.25;85.95
78144;BME280;67394;52.522;13.622;2023-05-16T05:51:29;100671.03;;;10.26;86.27
78144;BME280;67394;52.522;13.622;2023-05-16T05:53:56;100677.00;;;10.23;86.28
78144;BME280;67394;52.522;13.622;2023-05-16T05:56:22;100675.28;;;10.24;85.20
78144;BME280;67394;52.522;13.622;2023-05-16T05:58:50;100675.28;;;10.22;85.83
78144;BME280;67394;52.522;13.622;2023-05-16T06:01:17;100675.28;;;10.21;85.60
78144;BME280;67394;52.522;13.622;2023-05-16T06:03:45;100676.94;;;10.17;86.23
78144;BME280;67394;52.522;13.622;2023-05-16T06:06:11;100682.97;;;10.22;85.84
78144;BME280;67394;52.522;13.622;2023-05-16T06:08:38;100672.72;;;10.28;85.72
78144;BME280;67394;52.522;13.622;2023-05-16T06:11:05;100682.13;;;10.31;84.23
78144;BME280;67394;52.522;13.622;2023-05-16T06:13:32;100672.72;;;10.41;84.99
78144;BME280;67394;52.522;13.622;2023-05-16T06:15:59;100686.41;;;10.35;84.62
78144;BME280;67394;52.522;13.622;2023-05-16T06:18:25;100683.81;;;10.31;83.71
78144;BME280;67394;52.522;13.622;2023-05-16T06:20:52;100682.97;;;10.32;84.04
78144;BME280;67394;52.522;13.622;2023-05-16T06:23:19;100683.00;;;10.44;84.79
78144;BME280;67394;52.522;13.622;2023-05-16T06:25:46;100688.09;;;10.39;83.44
78144;BME280;67394;52.522;13.622;2023-05-16T06:28:13;100685.56;;;10.35;82.90
78144;BME280;67394;52.522;13.622;2023-05-16T06:30:40;100689.81;;;10.33;83.00
78144;BME280;67394;52.522;13.622;2023-05-16T06:33:07;100693.25;;;10.38;83.01
78144;BME280;67394;52.522;13.622;2023-05-16T06:35:34;100691.53;;;10.43;84.03
78144;BME280;67394;52.522;13.622;2023-05-16T06:38:00;100705.19;;;10.52;82.34
78144;BME280;67394;52.522;13.622;2023-05-16T06:40:27;100702.63;;;10.43;81.54
78144;BME280;67394;52.522;13.622;2023-05-16T06:42:53;100708.59;;;10.41;82.82
78144;BME280;67394;52.522;13.622;2023-05-16T06:45:20;100712.88;;;10.42;82.56
78144;BME280;67394;52.522;13.622;2023-05-16T06:47:47;100712.03;;;10.44;81.70
78144;BME280;67394;52.522;13.622;2023-05-16T06:50:13;100713.72;;;10.51;82.35
78144;BME280;67394;52.522;13.622;2023-05-16T06:52:40;100720.59;;;10.55;81.47
78144;BME280;67394;52.522;13.622;2023-05-16T06:55:07;100722.28;;;10.61;81.97
78144;BME280;67394;52.522;13.622;2023-05-16T06:57:34;100724.88;;;10.66;81.84
78144;BME280;67394;52.522;13.622;2023-05-16T07:00:01;100735.09;;;10.59;80.73
78144;BME280;67394;52.522;13.622;2023-05-16T07:02:28;100734.25;;;10.63;81.42
78144;BME280;67394;52.522;13.622;2023-05-16T07:04:55;100735.97;;;10.69;82.57
78144;BME280;67394;52.522;13.622;2023-05-16T07:07:24;100737.69;;;10.64;80.79
78144;BME280;67394;52.522;13.622;2023-05-16T07:09:51;100743.66;;;10.64;80.58
78144;BME280;67394;52.522;13.622;2023-05-16T07:12:18;100744.53;;;10.77;80.95
78144;BME280;67394;52.522;13.622;2023-05-16T07:14:46;100744.50;;;10.71;80.71
78144;BME280;67394;52.522;13.622;2023-05-16T07:17:13;100743.66;;;10.78;80.13
78144;BME280;67394;52.522;13.622;2023-05-16T07:19:39;100747.91;;;10.70;80.23
78144;BME280;67394;52.522;13.622;2023-05-16T07:22:06;100746.19;;;10.60;80.36
78144;BME280;67394;52.522;13.622;2023-05-16T07:24:33;100753.91;;;10.58;80.41
78144;BME280;67394;52.522;13.622;2023-05-16T07:27:02;100762.47;;;10.65;80.28
78144;BME280;67394;52.522;13.622;2023-05-16T07:29:29;100762.47;;;10.65;80.57
78144;BME280;67394;52.522;13.622;2023-05-16T07:31:56;100761.63;;;10.69;80.87
78144;BME280;67394;52.522;13.622;2023-05-16T07:34:22;100757.31;;;10.82;79.65
78144;BME280;67394;52.522;13.622;2023-05-16T07:36:52;100758.19;;;10.82;79.80
78144;BME280;67394;52.522;13.622;2023-05-16T07:39:19;100752.22;;;10.89;80.67
78144;BME280;67394;52.522;13.622;2023-05-16T07:41:46;100747.06;;;10.95;79.40
78144;BME280;67394;52.522;13.622;2023-05-16T07:44:13;100760.75;;;11.04;78.99
78144;BME280;67394;52.522;13.622;2023-05-16T07:46:41;100759.88;;;11.06;79.72
78144;BME280;67394;52.522;13.622;2023-05-16T07:49:09;100769.28;;;11.07;79.19
78144;BME280;67394;52.522;13.622;2023-05-16T07:51:35;100763.34;;;11.00;79.10
78144;BME280;67394;52.522;13.622;2023-05-16T07:54:02;100776.13;;;11.17;79.76
78144;BME280;67394;52.522;13.622;2023-05-16T07:56:29;100766.69;;;11.24;79.44
78144;BME280;67394;52.522;13.622;2023-05-16T07:58:56;100765.88;;;11.19;78.29
78144;BME280;67394;52.522;13.622;2023-05-16T08:01:26;100775.28;;;11.18;78.62
78144;BME280;67394;52.522;13.622;2023-05-16T08:03:54;100771.00;;;11.22;77.61
78144;BME280;67394;52.522;13.622;2023-05-16T08:06:21;100776.13;;;11.22;77.41
78144;BME280;67394;52.522;13.622;2023-05-16T08:08:47;100779.56;;;11.22;77.60
78144;BME280;67394;52.522;13.622;2023-05-16T08:11:16;100776.09;;;11.40;76.82
78144;BME280;67394;52.522;13.622;2023-05-16T08:13:43;100792.34;;;11.34;76.50
78144;BME280;67394;52.522;13.622;2023-05-16T08:16:09;100795.78;;;11.40;77.04
78144;BME280;67394;52.522;13.622;2023-05-16T08:18:36;100803.47;;;11.40;76.04
78144;BME280;67394;52.522;13.622;2023-05-16T08:21:03;100799.19;;;11.40;75.57
78144;BME280;67394;52.522;13.622;2023-05-16T08:23:30;100810.31;;;11.34;76.46
78144;BME280;67394;52.522;13.622;2023-05-16T08:25:57;100806.06;;;11.43;76.83
78144;BME280;67394;52.522;13.622;2023-05-16T08:28:24;100806.88;;;11.35;76.20
78144;BME280;67394;52.522;13.622;2023-05-16T08:30:51;100819.72;;;11.46;76.67
78144;BME280;67394;52.522;13.622;2023-05-16T08:33:18;100812.03;;;11.42;75.20
78144;BME280;67394;52.522;13.622;2023-05-16T08:35:45;100815.44;;;11.50;75.97
78144;BME280;67394;52.522;13.622;2023-05-16T08:38:13;100816.31;;;11.41;75.19
78144;BME280;67394;52.522;13.622;2023-05-16T08:40:41;100812.88;;;11.37;74.27
78144;BME280;67394;52.522;13.622;2023-05-16T08:43:08;100818.03;;;11.37;75.40
78144;BME280;67394;52.522;13.622;2023-05-16T08:45:36;100818.00;;;11.51;75.34
78144;BME280;67394;52.522;13.622;2023-05-16T08:48:04;100821.41;;;11.56;75.67
78144;BME280;67394;52.522;13.622;2023-05-16T08:50:35;100825.69;;;11.59;76.28
78144;BME280;67394;52.522;13.622;2023-05-16T08:53:08;100819.69;;;11.55;75.50
78144;BME280;67394;52.522;13.622;2023-05-16T08:55:39;100818.03;;;11.41;75.00
78144;BME280;67394;52.522;13.622;2023-05-16T08:58:07;100820.59;;;11.30;75.36
78144;BME280;67394;52.522;13.622;2023-05-16T09:00:34;100815.47;;;11.30;74.92
78144;BME280;67394;52.522;13.622;2023-05-16T09:03:05;100810.34;;;11.22;74.63
78144;BME280;67394;52.522;13.622;2023-05-16T09:05:32;100809.50;;;11.32;74.50
78144;BME280;67394;52.522;13.622;2023-05-16T09:07:59;100810.31;;;11.48;74.00
78144;BME280;67394;52.522;13.622;2023-05-16T09:10:25;100812.88;;;11.37;74.01
78144;BME280;67394;52.522;13.622;2023-05-16T09:12:52;100808.63;;;11.40;74.42
78144;BME280;67394;52.522;13.622;2023-05-16T09:15:19;100818.00;;;11.45;74.16
78144;BME280;67394;52.522;13.622;2023-05-16T09:17:46;100828.25;;;11.57;73.57
78144;BME280;67394;52.522;13.622;2023-05-16T09:22:49;100829.13;;;11.64;74.64
78144;BME280;67394;52.522;13.622;2023-05-16T09:25:17;100837.66;;;11.73;73.48
78144;BME280;67394;52.522;13.622;2023-05-16T09:27:57;100836.78;;;11.78;73.42
78144;BME280;67394;52.522;13.622;2023-05-16T09:30:33;100834.22;;;11.68;72.28
78144;BME280;67394;52.522;13.622;2023-05-16T09:33:00;100832.50;;;11.67;72.36
78144;BME280;67394;52.522;13.622;2023-05-16T09:35:27;100832.53;;;11.57;72.63
78144;BME280;67394;52.522;13.622;2023-05-16T09:37:57;100843.66;;;11.63;72.08
78144;BME280;67394;52.522;13.622;2023-05-16T09:40:24;100847.06;;;11.70;72.39
78144;BME280;67394;52.522;13.622;2023-05-16T09:43:04;100859.06;;;11.63;72.76
78144;BME280;67394;52.522;13.622;2023-05-16T09:45:32;100855.63;;;11.70;72.18
78144;BME280;67394;52.522;13.622;2023-05-16T09:48:06;100858.19;;;11.73;73.69
78144;BME280;67394;52.522;13.622;2023-05-16T09:50:35;100850.50;;;11.80;71.80
78144;BME280;67394;52.522;13.622;2023-05-16T09:53:03;100859.91;;;11.78;72.26
78144;BME280;67394;52.522;13.622;2023-05-16T09:55:31;100871.88;;;11.74;71.81
78144;BME280;67394;52.522;13.622;2023-05-16T09:57:57;100859.09;;;11.76;70.39
78144;BME280;67394;52.522;13.622;2023-05-16T10:00:31;100855.63;;;11.70;72.04
78144;BME280;67394;52.522;13.622;2023-05-16T10:03:00;100863.31;;;11.72;71.78
78144;BME280;67394;52.522;13.622;2023-05-16T10:05:31;100857.34;;;11.81;71.59
78144;BME280;67394;52.522;13.622;2023-05-16T10:07:58;100854.78;;;11.78;71.39
78144;BME280;67394;52.522;13.622;2023-05-16T10:10:25;100856.50;;;11.85;72.03
78144;BME280;67394;52.522;13.622;2023-05-16T10:12:54;100867.59;;;11.96;71.16
78144;BME280;67394;52.522;13.622;2023-05-16T10:15:24;100868.44;;;12.02;69.94
78144;BME280;67394;52.522;13.622;2023-05-16T10:17:53;100862.41;;;12.11;70.12
78144;BME280;67394;52.522;13.622;2023-05-16T10:20:22;100864.13;;;12.06;70.22
78144;BME280;67394;52.522;13.622;2023-05-16T10:22:49;100864.09;;;12.17;70.83
78144;BME280;67394;52.522;13.622;2023-05-16T10:25:28;100864.91;;;12.28;69.03
78144;BME280;67394;52.522;13.622;2023-05-16T10:27:58;100870.06;;;12.25;67.75
78144;BME280;67394;52.522;13.622;2023-05-16T10:30:27;100860.69;;;12.15;69.35
78144;BME280;67394;52.522;13.622;2023-05-16T10:32:55;100864.06;;;12.21;69.39
78144;BME280;67394;52.522;13.622;2023-05-16T10:35:23;100877.81;;;12.17;69.84
78144;BME280;67394;52.522;13.622;2023-05-16T10:37:51;100873.50;;;12.25;69.58
78144;BME280;67394;52.522;13.622;2023-05-16T10:40:18;100882.91;;;12.19;69.39
78144;BME280;67394;52.522;13.622;2023-05-16T10:42:58;100885.50;;;12.22;69.80
78144;BME280;67394;52.522;13.622;2023-05-16T10:45:26;100888.03;;;12.32;68.47
78144;BME280;67394;52.522;13.622;2023-05-16T10:50:40;100885.44;;;12.37;69.96
78144;BME280;67394;52.522;13.622;2023-05-16T10:53:30;100881.97;;;12.42;69.78
78144;BME280;67394;52.522;13.622;2023-05-16T11:01:29;100874.22;;;12.50;68.66
78144;BME280;67394;52.522;13.622;2023-05-16T11:24:38;100924.09;;;11.65;72.41
78144;BME280;67394;52.522;13.622;2023-05-16T11:27:05;100913.84;;;11.71;71.54
78144;BME280;67394;52.522;13.622;2023-05-16T11:29:35;100911.25;;;11.65;72.23
78144;BME280;67394;52.522;13.622;2023-05-16T11:32:03;100922.41;;;11.64;71.92
78144;BME280;67394;52.522;13.622;2023-05-16T11:34:31;100918.97;;;11.62;70.92
78144;BME280;67394;52.522;13.622;2023-05-16T11:37:01;100924.09;;;11.73;71.57
78144;BME280;67394;52.522;13.622;2023-05-16T11:39:30;100913.81;;;11.97;70.84
78144;BME280;67394;52.522;13.622;2023-05-16T11:41:57;100912.03;;;12.22;70.74
78144;BME280;67394;52.522;13.622;2023-05-16T11:44:24;100924.84;;;12.39;69.53
78144;BME280;67394;52.522;13.622;2023-05-16T11:46:51;100915.34;;;12.56;69.72
78144;BME280;67394;52.522;13.622;2023-05-16T11:49:18;100923.88;;;12.61;66.51
78144;BME280;67394;52.522;13.622;2023-05-16T11:51:45;100939.34;;;12.51;66.23
78144;BME280;67394;52.522;13.622;2023-05-16T11:54:12;100935.09;;;12.48;66.62
78144;BME280;67394;52.522;13.622;2023-05-16T11:56:39;100929.03;;;12.64;66.96
78144;BME280;67394;52.522;13.622;2023-05-16T11:59:06;100923.91;;;12.60;66.65
78144;BME280;67394;52.522;13.622;2023-05-16T12:01:34;100929.81;;;12.77;67.48
78144;BME280;67394;52.522;13.622;2023-05-16T12:04:02;100927.19;;;12.88;66.05
78144;BME280;67394;52.522;13.622;2023-05-16T12:06:33;100927.22;;;12.83;64.03
78144;BME280;67394;52.522;13.622;2023-05-16T12:09:00;100925.59;;;12.61;65.86
78144;BME280;67394;52.522;13.622;2023-05-16T12:11:26;100930.72;;;12.68;65.55
78144;BME280;67394;52.522;13.622;2023-05-16T12:13:53;100931.59;;;12.61;64.51
78144;BME280;67394;52.522;13.622;2023-05-16T12:16:20;100936.72;;;12.67;65.25
78144;BME280;67394;52.522;13.622;2023-05-16T12:18:47;100953.06;;;12.53;64.59
78144;BME280;67394;52.522;13.622;2023-05-16T12:21:14;100949.63;;;12.60;64.60
78144;BME280;67394;52.522;13.622;2023-05-16T12:23:41;100950.53;;;12.46;65.01
78144;BME280;67394;52.522;13.622;2023-05-16T12:26:07;100962.53;;;12.48;65.88
78144;BME280;67394;52.522;13.622;2023-05-16T12:28:34;100964.22;;;12.58;67.31
78144;BME280;67394;52.522;13.622;2023-05-16T12:31:01;100961.59;;;12.70;66.64
78144;BME280;67394;52.522;13.622;2023-05-16T12:33:28;100961.59;;;12.68;64.57
78144;BME280;67394;52.522;13.622;2023-05-16T12:35:55;100964.06;;;12.91;64.38
78144;BME280;67394;52.522;13.622;2023-05-16T12:38:24;100962.31;;;12.93;63.68
78144;BME280;67394;52.522;13.622;2023-05-16T12:40:57;100956.31;;;12.94;64.57
78144;BME280;67394;52.522;13.622;2023-05-16T12:43:25;100959.72;;;12.99;63.05
78144;BME280;67394;52.522;13.622;2023-05-16T12:45:54;100958.78;;;13.17;63.06
78144;BME280;67394;52.522;13.622;2023-05-16T12:48:23;100956.00;;;13.46;61.81
78144;BME280;67394;52.522;13.622;2023-05-16T12:50:50;100957.56;;;13.68;62.89
78144;BME280;67394;52.522;13.622;2023-05-16T12:53:17;100951.09;;;14.19;61.39
78144;BME280;67394;52.522;13.622;2023-05-16T12:55:44;100951.13;;;14.12;59.86
78144;BME280;67394;52.522;13.622;2023-05-16T12:58:11;100951.44;;;13.83;58.60
78144;BME280;67394;52.522;13.622;2023-05-16T13:00:38;100942.09;;;13.68;58.80
78144;BME280;67394;52.522;13.622;2023-05-16T13:03:07;100953.94;;;13.90;60.71
78144;BME280;67394;52.522;13.622;2023-05-16T13:05:34;100936.06;;;13.72;57.42
78144;BME280;67394;52.522;13.622;2023-05-16T13:08:03;100933.41;;;13.78;59.32
78144;BME280;67394;52.522;13.622;2023-05-16T13:10:30;100938.63;;;13.75;59.82
78144;BME280;67394;52.522;13.622;2023-05-16T13:12:58;100933.34;;;13.87;58.66
78144;BME280;67394;52.522;13.622;2023-05-16T13:15:25;100937.78;;;13.72;56.57
78144;BME280;67394;52.522;13.622;2023-05-16T13:17:53;100942.88;;;13.78;56.72
78144;BME280;67394;52.522;13.622;2023-05-16T13:20:19;100935.19;;;13.76;56.21
78144;BME280;67394;52.522;13.622;2023-05-16T13:22:46;100941.13;;;13.80;58.46